createdAt,value
2018-04-18T00:00:52.073Z,989.28
2018-04-18T00:01:52.079Z,989.29
2018-04-18T00:02:52.077Z,989.27
2018-04-18T00:03:52.078Z,989.24
2018-04-18T00:04:52.120Z,989.31
2018-04-18T00:05:52.075Z,989.31
2018-04-18T00:06:52.074Z,989.26
2018-04-18T00:07:52.071Z,989.34
2018-04-18T00:08:52.071Z,989.35
2018-04-18T00:09:52.118Z,989.36
2018-04-18T00:10:52.071Z,989.33
2018-04-18T00:11:52.067Z,989.36
2018-04-18T00:12:52.075Z,989.37
2018-04-18T00:13:52.068Z,989.36
2018-04-18T00:14:52.113Z,989.36
2018-04-18T00:15:52.079Z,989.40
2018-04-18T00:16:52.062Z,989.40
2018-04-18T00:17:52.066Z,989.41
2018-04-18T00:18:52.144Z,989.44
2018-04-18T00:19:52.117Z,989.41
2018-04-18T00:20:52.060Z,989.46
2018-04-18T00:21:52.060Z,989.45
2018-04-18T00:22:52.062Z,989.41
2018-04-18T00:23:52.059Z,989.39
2018-04-18T00:24:52.111Z,989.42
2018-04-18T00:25:52.057Z,989.38
2018-04-18T00:26:52.174Z,989.39
2018-04-18T00:27:52.873Z,989.37
2018-04-18T00:28:52.053Z,989.40
2018-04-18T00:29:52.098Z,989.39
2018-04-18T00:30:52.049Z,989.42
2018-04-18T00:31:52.109Z,989.41
2018-04-18T00:32:52.049Z,989.39
2018-04-18T00:33:52.050Z,989.39
2018-04-18T00:35:03.062Z,989.38
2018-04-18T00:35:52.047Z,989.35
2018-04-18T00:36:52.051Z,989.37
2018-04-18T00:37:52.048Z,989.40
2018-04-18T00:38:52.049Z,989.39
2018-04-18T00:39:52.083Z,989.40
2018-04-18T00:40:52.042Z,989.43
2018-04-18T00:41:52.384Z,989.44
2018-04-18T00:42:52.038Z,989.46
2018-04-18T00:43:52.040Z,989.43
2018-04-18T00:44:52.199Z,989.46
2018-04-18T00:45:52.035Z,989.40
2018-04-18T00:46:52.036Z,989.40
2018-04-18T00:47:52.035Z,989.39
2018-04-18T00:48:52.028Z,989.35
2018-04-18T00:49:52.032Z,989.36
2018-04-18T00:50:52.077Z,989.38
2018-04-18T00:51:52.030Z,989.29
2018-04-18T00:52:52.028Z,989.33
2018-04-18T00:53:52.026Z,989.30
2018-04-18T00:54:52.027Z,989.27
2018-04-18T00:55:52.086Z,989.29
2018-04-18T00:56:52.024Z,989.29
2018-04-18T00:57:52.025Z,989.28
2018-04-18T00:58:53.038Z,989.33
2018-04-18T00:59:52.021Z,989.33
2018-04-18T01:00:52.092Z,989.39
2018-04-18T01:01:52.020Z,989.38
2018-04-18T01:02:52.017Z,989.38
2018-04-18T01:03:52.011Z,989.38
2018-04-18T01:04:52.020Z,989.40
2018-04-18T01:05:52.072Z,989.42
2018-04-18T01:06:52.013Z,989.44
2018-04-18T01:07:52.005Z,989.41
2018-04-18T01:08:52.010Z,989.42
2018-04-18T01:09:52.005Z,989.41
2018-04-18T01:10:52.004Z,989.38
2018-04-18T01:11:52.046Z,989.37
2018-04-18T01:12:51.995Z,989.37
2018-04-18T01:13:51.998Z,989.37
2018-04-18T01:14:52.006Z,989.36
2018-04-18T01:15:52.059Z,989.39
2018-04-18T01:16:51.998Z,989.38
2018-04-18T01:17:51.995Z,989.40
2018-04-18T01:18:52.001Z,989.34
2018-04-18T01:19:51.986Z,989.38
2018-04-18T01:20:51.992Z,989.38
2018-04-18T01:21:52.047Z,989.37
2018-04-18T01:22:51.983Z,989.39
2018-04-18T01:23:51.987Z,989.40
2018-04-18T01:24:51.990Z,989.45
2018-04-18T01:25:51.988Z,989.44
2018-04-18T01:26:52.075Z,989.44
2018-04-18T01:27:51.984Z,989.42
2018-04-18T01:28:51.979Z,989.43
2018-04-18T01:29:51.973Z,989.43
2018-04-18T01:30:51.979Z,989.45
2018-04-18T01:31:53.711Z,989.44
2018-04-18T01:32:51.967Z,989.42
2018-04-18T01:33:51.973Z,989.41
2018-04-18T01:34:51.972Z,989.44
2018-04-18T01:35:51.969Z,989.44
2018-04-18T01:36:51.965Z,989.45
2018-04-18T01:37:52.089Z,989.44
2018-04-18T01:38:51.992Z,989.43
2018-04-18T01:39:51.967Z,989.44
2018-04-18T01:40:51.966Z,989.39
2018-04-18T01:41:51.960Z,989.40
2018-04-18T01:42:52.022Z,989.43
2018-04-18T01:43:51.955Z,989.41
2018-04-18T01:44:52.343Z,989.46
2018-04-18T01:45:51.952Z,989.44
2018-04-18T01:47:13.576Z,989.43
2018-04-18T01:47:51.948Z,989.42
2018-04-18T01:48:51.948Z,989.44
2018-04-18T01:49:51.949Z,989.40
2018-04-18T01:50:52.879Z,989.40
2018-04-18T01:51:51.985Z,989.36
2018-04-18T01:52:51.943Z,989.37
2018-04-18T01:53:51.940Z,989.37
2018-04-18T01:54:51.931Z,989.37
2018-04-18T01:55:51.935Z,989.32
2018-04-18T01:56:51.982Z,989.35
2018-04-18T01:57:51.937Z,989.34
2018-04-18T01:58:52.032Z,989.32
2018-04-18T01:59:51.931Z,989.33
2018-04-18T02:00:51.925Z,989.33
2018-04-18T02:01:52.087Z,989.33
2018-04-18T02:02:51.929Z,989.29
2018-04-18T02:03:51.915Z,989.29
2018-04-18T02:04:51.921Z,989.29
2018-04-18T02:05:51.923Z,989.29
2018-04-18T02:06:51.917Z,989.32
2018-04-18T02:07:51.963Z,989.30
2018-04-18T02:08:51.917Z,989.33
2018-04-18T02:09:51.904Z,989.34
2018-04-18T02:10:51.907Z,989.33
2018-04-18T02:11:51.951Z,989.33
2018-04-18T02:12:51.906Z,989.35
2018-04-18T02:13:51.907Z,989.40
2018-04-18T02:14:51.903Z,989.37
2018-04-18T02:15:51.903Z,989.37
2018-04-18T02:16:51.943Z,989.43
2018-04-18T02:17:51.898Z,989.40
2018-04-18T02:18:51.892Z,989.40
2018-04-18T02:19:51.895Z,989.44
2018-04-18T02:20:51.893Z,989.42
2018-04-18T02:21:51.934Z,989.44
2018-04-18T02:22:51.889Z,989.44
2018-04-18T02:23:52.716Z,989.45
2018-04-18T02:24:51.887Z,989.44
2018-04-18T02:25:51.880Z,989.41
2018-04-18T02:26:51.923Z,989.46
2018-04-18T02:27:51.881Z,989.46
2018-04-18T02:28:51.872Z,989.44
2018-04-18T02:29:51.878Z,989.46
2018-04-18T02:30:51.880Z,989.49
2018-04-18T02:31:51.927Z,989.52
2018-04-18T02:32:51.871Z,989.48
2018-04-18T02:33:51.864Z,989.50
2018-04-18T02:34:51.944Z,989.46
2018-04-18T02:35:51.864Z,989.43
2018-04-18T02:37:02.559Z,989.46
2018-04-18T02:37:51.860Z,989.45
2018-04-18T02:38:51.852Z,989.49
2018-04-18T02:39:51.861Z,989.50
2018-04-18T02:40:51.857Z,989.52
2018-04-18T02:41:52.296Z,989.47
2018-04-18T02:42:51.856Z,989.46
2018-04-18T02:43:51.848Z,989.48
2018-04-18T02:44:51.841Z,989.47
2018-04-18T02:45:51.848Z,989.48
2018-04-18T02:46:51.907Z,989.46
2018-04-18T02:47:51.840Z,989.49
2018-04-18T02:48:51.844Z,989.50
2018-04-18T02:49:51.840Z,989.48
2018-04-18T02:50:51.836Z,989.50
2018-04-18T02:51:51.887Z,989.48
2018-04-18T02:52:51.836Z,989.49
2018-04-18T02:53:51.827Z,989.49
2018-04-18T02:54:51.830Z,989.49
2018-04-18T02:55:51.827Z,989.50
2018-04-18T02:56:51.871Z,989.50
2018-04-18T02:57:51.825Z,989.53
2018-04-18T02:58:51.820Z,989.53
2018-04-18T02:59:51.827Z,989.54
2018-04-18T03:00:51.873Z,989.48
2018-04-18T03:01:51.815Z,989.50
2018-04-18T03:02:51.811Z,989.53
2018-04-18T03:03:51.809Z,989.48
2018-04-18T03:04:51.807Z,989.48
2018-04-18T03:05:51.808Z,989.48
2018-04-18T03:06:51.853Z,989.48
2018-04-18T03:07:51.800Z,989.49
2018-04-18T03:08:51.801Z,989.49
2018-04-18T03:09:51.797Z,989.52
2018-04-18T03:10:51.797Z,989.52
2018-04-18T03:11:51.835Z,989.52
2018-04-18T03:12:51.790Z,989.52
2018-04-18T03:13:51.784Z,989.51
2018-04-18T03:14:51.791Z,989.57
2018-04-18T03:15:51.785Z,989.54
2018-04-18T03:16:51.833Z,989.57
2018-04-18T03:17:51.781Z,989.61
2018-04-18T03:18:51.781Z,989.60
2018-04-18T03:19:51.786Z,989.56
2018-04-18T03:20:51.777Z,989.58
2018-04-18T03:22:02.735Z,989.60
2018-04-18T03:22:51.796Z,989.56
2018-04-18T03:23:51.798Z,989.57
2018-04-18T03:24:51.849Z,989.59
2018-04-18T03:25:51.791Z,989.59
2018-04-18T03:26:51.786Z,989.59
2018-04-18T03:27:51.822Z,989.56
2018-04-18T03:28:51.778Z,989.59
2018-04-18T03:29:51.781Z,989.56
2018-04-18T03:30:51.779Z,989.59
2018-04-18T03:31:51.779Z,989.61
2018-04-18T03:32:51.889Z,989.62
2018-04-18T03:33:51.771Z,989.66
2018-04-18T03:34:52.424Z,989.65
2018-04-18T03:35:51.817Z,989.66
2018-04-18T03:36:51.764Z,989.67
2018-04-18T03:37:52.555Z,989.68
2018-04-18T03:38:51.763Z,989.66
2018-04-18T03:39:51.992Z,989.67
2018-04-18T03:40:51.787Z,989.66
2018-04-18T03:41:51.767Z,989.66
2018-04-18T03:42:51.806Z,989.67
2018-04-18T03:44:03.331Z,989.66
2018-04-18T03:44:51.751Z,989.67
2018-04-18T03:45:51.743Z,989.70
2018-04-18T03:46:51.773Z,989.71
2018-04-18T03:47:51.744Z,989.70
2018-04-18T03:48:51.791Z,989.74
2018-04-18T03:49:51.749Z,989.76
2018-04-18T03:50:51.742Z,989.76
2018-04-18T03:51:51.735Z,989.80
2018-04-18T03:52:59.568Z,989.79
2018-04-18T03:53:51.727Z,989.80
2018-04-18T03:54:51.723Z,989.82
2018-04-18T03:55:51.723Z,989.81
2018-04-18T03:56:55.902Z,989.83
2018-04-18T03:57:53.582Z,989.85
2018-04-18T03:58:51.716Z,989.84
2018-04-18T03:59:51.721Z,989.84
2018-04-18T04:00:51.719Z,989.81
2018-04-18T04:01:51.714Z,989.86
2018-04-18T04:02:51.774Z,989.85
2018-04-18T04:03:51.708Z,989.86
2018-04-18T04:04:51.712Z,989.91
2018-04-18T04:05:51.706Z,989.88
2018-04-18T04:06:51.710Z,989.91
2018-04-18T04:07:51.880Z,989.86
2018-04-18T04:08:51.704Z,989.89
2018-04-18T04:09:51.699Z,989.92
2018-04-18T04:10:51.696Z,989.89
2018-04-18T04:11:51.695Z,989.87
2018-04-18T04:12:51.688Z,989.88
2018-04-18T04:13:51.748Z,989.87
2018-04-18T04:14:51.689Z,989.88
2018-04-18T04:15:51.684Z,989.86
2018-04-18T04:16:51.680Z,989.85
2018-04-18T04:17:51.681Z,989.86
2018-04-18T04:18:51.677Z,989.88
2018-04-18T04:19:51.753Z,989.83
2018-04-18T04:20:51.677Z,989.86
2018-04-18T04:21:51.672Z,989.83
2018-04-18T04:22:51.673Z,989.84
2018-04-18T04:23:51.725Z,989.89
2018-04-18T04:24:51.729Z,989.86
2018-04-18T04:25:51.665Z,989.89
2018-04-18T04:26:51.661Z,989.88
2018-04-18T04:27:51.657Z,989.87
2018-04-18T04:28:51.655Z,989.90
2018-04-18T04:29:51.697Z,989.89
2018-04-18T04:30:51.652Z,989.90
2018-04-18T04:31:51.655Z,989.95
2018-04-18T04:32:51.648Z,989.92
2018-04-18T04:33:51.643Z,989.93
2018-04-18T04:34:51.852Z,989.97
2018-04-18T04:35:51.645Z,989.99
2018-04-18T04:36:51.632Z,990.02
2018-04-18T04:37:51.646Z,990.02
2018-04-18T04:38:51.643Z,990.01
2018-04-18T04:39:51.635Z,990.04
2018-04-18T04:40:51.678Z,990.10
2018-04-18T04:41:51.632Z,990.05
2018-04-18T04:42:51.626Z,990.06
2018-04-18T04:43:51.631Z,990.12
2018-04-18T04:44:51.685Z,990.14
2018-04-18T04:45:51.926Z,990.15
2018-04-18T04:46:51.619Z,990.13
2018-04-18T04:47:53.784Z,990.17
2018-04-18T04:48:51.612Z,990.16
2018-04-18T04:49:59.548Z,990.19
2018-04-18T04:50:51.666Z,990.17
2018-04-18T04:51:51.610Z,990.17
2018-04-18T04:52:51.603Z,990.17
2018-04-18T04:53:51.611Z,990.22
2018-04-18T04:54:51.604Z,990.25
2018-04-18T04:55:52.600Z,990.30
2018-04-18T04:56:51.595Z,990.26
2018-04-18T04:57:51.596Z,990.29
2018-04-18T04:58:51.597Z,990.27
2018-04-18T04:59:51.596Z,990.30
2018-04-18T05:00:51.645Z,990.31
2018-04-18T05:01:51.588Z,990.32
2018-04-18T05:02:51.606Z,990.31
2018-04-18T05:03:51.585Z,990.33
2018-04-18T05:04:51.633Z,990.35
2018-04-18T05:05:51.583Z,990.41
2018-04-18T05:06:51.583Z,990.41
2018-04-18T05:07:51.582Z,990.42
2018-04-18T05:08:51.573Z,990.44
2018-04-18T05:09:51.617Z,990.42
2018-04-18T05:10:51.601Z,990.43
2018-04-18T05:11:51.576Z,990.47
2018-04-18T05:12:51.579Z,990.49
2018-04-18T05:13:51.572Z,990.43
2018-04-18T05:14:51.629Z,990.48
2018-04-18T05:15:51.571Z,990.47
2018-04-18T05:16:51.569Z,990.50
2018-04-18T05:17:51.570Z,990.53
2018-04-18T05:18:51.569Z,990.55
2018-04-18T05:19:51.619Z,990.56
2018-04-18T05:20:51.563Z,990.62
2018-04-18T05:21:51.558Z,990.67
2018-04-18T05:22:51.569Z,990.71
2018-04-18T05:23:51.560Z,990.68
2018-04-18T05:24:51.598Z,990.72
2018-04-18T05:25:51.554Z,990.69
2018-04-18T05:26:51.558Z,990.71
2018-04-18T05:27:51.554Z,990.72
2018-04-18T05:28:51.552Z,990.75
2018-04-18T05:29:51.606Z,990.80
2018-04-18T05:30:51.629Z,990.78
2018-04-18T05:31:52.515Z,990.78
2018-04-18T05:32:52.540Z,990.81
2018-04-18T05:33:51.550Z,990.88
2018-04-18T05:34:52.215Z,990.91
2018-04-18T05:35:51.552Z,990.94
2018-04-18T05:36:51.557Z,990.90
2018-04-18T05:37:51.554Z,990.92
2018-04-18T05:38:51.579Z,990.96
2018-04-18T05:39:51.604Z,990.97
2018-04-18T05:40:51.555Z,990.99
2018-04-18T05:41:51.556Z,990.97
2018-04-18T05:42:51.547Z,990.98
2018-04-18T05:43:51.552Z,990.98
2018-04-18T05:44:51.596Z,990.94
2018-04-18T05:45:51.552Z,990.97
2018-04-18T05:46:51.556Z,990.98
2018-04-18T05:47:51.552Z,990.99
2018-04-18T05:48:51.555Z,991.06
2018-04-18T05:49:51.600Z,991.04
2018-04-18T05:50:51.648Z,991.05
2018-04-18T05:51:51.553Z,991.04
2018-04-18T05:52:51.564Z,991.04
2018-04-18T05:53:51.561Z,991.06
2018-04-18T05:54:51.623Z,991.07
2018-04-18T05:55:51.560Z,991.08
2018-04-18T05:56:51.566Z,991.11
2018-04-18T05:57:51.564Z,991.07
2018-04-18T05:58:51.573Z,991.12
2018-04-18T05:59:51.870Z,991.12
2018-04-18T06:00:51.571Z,991.12
2018-04-18T06:01:51.569Z,991.15
2018-04-18T06:02:51.583Z,991.13
2018-04-18T06:03:51.973Z,991.15
2018-04-18T06:04:51.612Z,991.23
2018-04-18T06:06:06.110Z,991.26
2018-04-18T06:06:51.583Z,991.24
2018-04-18T06:07:51.577Z,991.23
2018-04-18T06:08:51.582Z,991.25
2018-04-18T06:09:51.588Z,991.25
2018-04-18T06:10:55.304Z,991.21
2018-04-18T06:11:51.586Z,991.21
2018-04-18T06:12:51.592Z,991.28
2018-04-18T06:13:51.593Z,991.27
2018-04-18T06:14:51.595Z,991.27
2018-04-18T06:15:51.643Z,991.24
2018-04-18T06:16:51.602Z,991.25
2018-04-18T06:17:51.627Z,991.25
2018-04-18T06:18:51.610Z,991.25
2018-04-18T06:19:51.831Z,991.22
2018-04-18T06:20:51.611Z,991.29
2018-04-18T06:21:51.617Z,991.29
2018-04-18T06:22:51.838Z,991.32
2018-04-18T06:23:51.623Z,991.35
2018-04-18T06:24:52.063Z,991.42
2018-04-18T06:25:51.630Z,991.39
2018-04-18T06:26:51.637Z,991.37
2018-04-18T06:27:51.652Z,991.43
2018-04-18T06:28:51.646Z,991.44
2018-04-18T06:29:52.548Z,991.39
2018-04-18T06:30:51.687Z,991.38
2018-04-18T06:31:51.686Z,991.41
2018-04-18T06:32:51.661Z,991.47
2018-04-18T06:33:51.667Z,991.46
2018-04-18T06:34:51.662Z,991.46
2018-04-18T06:35:51.723Z,991.46
2018-04-18T06:36:51.676Z,991.51
2018-04-18T06:37:51.764Z,991.52
2018-04-18T06:38:51.679Z,991.49
2018-04-18T06:39:51.689Z,991.50
2018-04-18T06:40:51.728Z,991.54
2018-04-18T06:41:51.697Z,991.53
2018-04-18T06:42:51.706Z,991.52
2018-04-18T06:43:51.705Z,991.51
2018-04-18T06:44:51.710Z,991.55
2018-04-18T06:45:51.770Z,991.60
2018-04-18T06:46:51.725Z,991.60
2018-04-18T06:47:53.414Z,991.60
2018-04-18T06:48:51.727Z,991.60
2018-04-18T06:49:51.838Z,991.64
2018-04-18T06:50:59.605Z,991.67
2018-04-18T06:51:51.749Z,991.67
2018-04-18T06:52:51.745Z,991.70
2018-04-18T06:53:51.758Z,991.68
2018-04-18T06:54:51.759Z,991.68
2018-04-18T06:56:02.621Z,991.70
2018-04-18T06:56:51.769Z,991.73
2018-04-18T06:57:51.781Z,991.69
2018-04-18T06:58:51.788Z,991.72
2018-04-18T06:59:51.791Z,991.71
2018-04-18T07:00:55.115Z,991.74
2018-04-18T07:01:51.805Z,991.72
2018-04-18T07:02:51.818Z,991.71
2018-04-18T07:03:51.813Z,991.75
2018-04-18T07:04:51.826Z,991.75
2018-04-18T07:05:52.029Z,991.76
2018-04-18T07:06:51.833Z,991.76
2018-04-18T07:07:51.854Z,991.74
2018-04-18T07:08:51.847Z,991.74
2018-04-18T07:09:51.856Z,991.77
2018-04-18T07:10:51.863Z,991.73
2018-04-18T07:11:51.916Z,991.75
2018-04-18T07:12:51.879Z,991.72
2018-04-18T07:13:51.882Z,991.78
2018-04-18T07:14:51.891Z,991.80
2018-04-18T07:15:52.046Z,991.78
2018-04-18T07:16:52.640Z,991.70
2018-04-18T07:17:51.912Z,991.71
2018-04-18T07:18:51.924Z,991.72
2018-04-18T07:19:51.941Z,991.73
2018-04-18T07:20:51.940Z,991.72
2018-04-18T07:21:52.016Z,991.75
2018-04-18T07:22:51.949Z,991.78
2018-04-18T07:23:51.958Z,991.77
2018-04-18T07:24:51.980Z,991.77
2018-04-18T07:25:51.980Z,991.80
2018-04-18T07:26:52.766Z,991.81
2018-04-18T07:27:51.992Z,991.83
2018-04-18T07:28:52.005Z,991.84
2018-04-18T07:29:52.010Z,991.87
2018-04-18T07:30:52.017Z,991.86
2018-04-18T07:31:52.025Z,991.93
2018-04-18T07:32:52.091Z,991.88
2018-04-18T07:33:52.049Z,991.95
2018-04-18T07:34:52.063Z,991.93
2018-04-18T07:35:52.069Z,991.93
2018-04-18T07:36:52.076Z,991.94
2018-04-18T07:37:52.161Z,991.96
2018-04-18T07:38:52.098Z,991.96
2018-04-18T07:39:52.105Z,991.94
2018-04-18T07:40:52.122Z,991.98
2018-04-18T07:41:52.134Z,991.98
2018-04-18T07:42:55.622Z,991.96
2018-04-18T07:43:52.146Z,991.97
2018-04-18T07:44:52.160Z,991.98
2018-04-18T07:45:52.166Z,992.01
2018-04-18T07:46:52.195Z,991.96
2018-04-18T07:47:52.229Z,992.02
2018-04-18T07:48:52.207Z,992.06
2018-04-18T07:49:52.219Z,992.02
2018-04-18T07:50:52.231Z,992.03
2018-04-18T07:51:52.231Z,992.05
2018-04-18T07:52:52.299Z,992.05
2018-04-18T07:53:52.266Z,992.02
2018-04-18T07:54:52.327Z,992.06
2018-04-18T07:55:52.353Z,992.02
2018-04-18T07:56:52.288Z,992.04
2018-04-18T07:57:52.655Z,992.04
2018-04-18T07:58:52.317Z,992.05
2018-04-18T07:59:52.335Z,992.04
2018-04-18T08:00:52.342Z,992.01
2018-04-18T08:01:52.622Z,992.01
2018-04-18T08:02:55.625Z,992.02
2018-04-18T08:03:52.380Z,992.03
2018-04-18T08:04:52.390Z,992.05
2018-04-18T08:05:52.400Z,992.03
2018-04-18T08:06:52.491Z,992.03
2018-04-18T08:07:52.424Z,992.07
2018-04-18T08:08:52.432Z,992.11
2018-04-18T08:09:52.563Z,992.11
2018-04-18T08:10:52.478Z,992.12
2018-04-18T08:11:52.473Z,992.08
2018-04-18T08:12:52.543Z,992.09
2018-04-18T08:13:52.507Z,992.11
2018-04-18T08:14:52.521Z,992.13
2018-04-18T08:15:52.533Z,992.15
2018-04-18T08:16:52.541Z,992.12
2018-04-18T08:17:52.604Z,992.14
2018-04-18T08:18:52.573Z,992.13
2018-04-18T08:19:52.594Z,992.14
2018-04-18T08:20:52.593Z,992.17
2018-04-18T08:21:52.623Z,992.21
2018-04-18T08:22:52.675Z,992.21
2018-04-18T08:23:53.031Z,992.23
2018-04-18T08:24:52.648Z,992.27
2018-04-18T08:25:52.661Z,992.27
2018-04-18T08:26:52.674Z,992.26
2018-04-18T08:28:03.660Z,992.25
2018-04-18T08:28:52.702Z,992.27
2018-04-18T08:29:52.787Z,992.30
2018-04-18T08:30:52.745Z,992.31
2018-04-18T08:31:52.760Z,992.35
2018-04-18T08:32:52.776Z,992.33
2018-04-18T08:33:53.639Z,992.35
2018-04-18T08:34:52.796Z,992.31
2018-04-18T08:35:52.802Z,992.32
2018-04-18T08:36:52.832Z,992.29
2018-04-18T08:37:52.848Z,992.31
2018-04-18T08:38:52.940Z,992.35
2018-04-18T08:39:52.865Z,992.34
2018-04-18T08:40:52.891Z,992.44
2018-04-18T08:41:52.892Z,992.40
2018-04-18T08:42:52.916Z,992.38
2018-04-18T08:43:52.997Z,992.39
2018-04-18T08:44:52.955Z,992.41
2018-04-18T08:45:52.966Z,992.36
2018-04-18T08:46:52.991Z,992.34
2018-04-18T08:47:52.991Z,992.35
2018-04-18T08:48:53.064Z,992.41
2018-04-18T08:49:53.020Z,992.42
2018-04-18T08:50:53.047Z,992.45
2018-04-18T08:51:53.074Z,992.43
2018-04-18T08:52:53.090Z,992.43
2018-04-18T08:53:53.141Z,992.40
2018-04-18T08:54:53.112Z,992.36
2018-04-18T08:55:53.129Z,992.36
2018-04-18T08:56:53.146Z,992.37
2018-04-18T08:57:54.245Z,992.39
2018-04-18T08:58:53.172Z,992.38
2018-04-18T08:59:53.190Z,992.39
2018-04-18T09:00:53.213Z,992.40
2018-04-18T09:01:53.231Z,992.42
2018-04-18T09:02:53.313Z,992.45
2018-04-18T09:03:53.257Z,992.41
2018-04-18T09:04:53.293Z,992.45
2018-04-18T09:05:53.305Z,992.43
2018-04-18T09:06:53.313Z,992.44
2018-04-18T09:07:53.413Z,992.42
2018-04-18T09:08:53.346Z,992.44
2018-04-18T09:09:53.375Z,992.42
2018-04-18T09:10:53.381Z,992.40
2018-04-18T09:11:53.417Z,992.44
2018-04-18T09:13:11.709Z,992.42
2018-04-18T09:13:53.438Z,992.42
2018-04-18T09:14:53.456Z,992.43
2018-04-18T09:15:53.467Z,992.46
2018-04-18T09:16:53.493Z,992.41
2018-04-18T09:17:53.674Z,992.42
2018-04-18T09:18:53.532Z,992.43
2018-04-18T09:19:53.542Z,992.46
2018-04-18T09:20:53.570Z,992.46
2018-04-18T09:21:53.580Z,992.44
2018-04-18T09:22:53.603Z,992.48
2018-04-18T09:23:53.666Z,992.46
2018-04-18T09:24:53.639Z,992.48
2018-04-18T09:25:53.656Z,992.44
2018-04-18T09:26:53.692Z,992.45
2018-04-18T09:27:53.696Z,992.41
2018-04-18T09:29:08.937Z,992.45
2018-04-18T09:29:53.729Z,992.46
2018-04-18T09:30:53.743Z,992.43
2018-04-18T09:31:53.772Z,992.48
2018-04-18T09:32:53.797Z,992.49
2018-04-18T09:33:53.865Z,992.49
2018-04-18T09:34:53.820Z,992.48
2018-04-18T09:35:53.848Z,992.52
2018-04-18T09:36:53.870Z,992.47
2018-04-18T09:37:53.939Z,992.51
2018-04-18T09:38:53.908Z,992.48
2018-04-18T09:39:53.928Z,992.46
2018-04-18T09:40:53.935Z,992.43
2018-04-18T09:41:53.957Z,992.49
2018-04-18T09:42:54.036Z,992.43
2018-04-18T09:43:54.023Z,992.47
2018-04-18T09:44:54.034Z,992.45
2018-04-18T09:45:54.045Z,992.46
2018-04-18T09:46:54.204Z,992.47
2018-04-18T09:47:54.152Z,992.44
2018-04-18T09:48:54.106Z,992.44
2018-04-18T09:49:55.163Z,992.43
2018-04-18T09:50:54.154Z,992.41
2018-04-18T09:51:54.202Z,992.41
2018-04-18T09:52:54.249Z,992.43
2018-04-18T09:53:54.215Z,992.43
2018-04-18T09:54:54.238Z,992.44
2018-04-18T09:55:54.260Z,992.44
2018-04-18T09:56:54.285Z,992.47
2018-04-18T09:58:02.187Z,992.47
2018-04-18T09:58:54.320Z,992.45
2018-04-18T09:59:54.335Z,992.43
2018-04-18T10:00:54.372Z,992.43
2018-04-18T10:01:54.396Z,992.43
2018-04-18T10:02:54.419Z,992.37
2018-04-18T10:03:54.491Z,992.37
2018-04-18T10:04:54.446Z,992.39
2018-04-18T10:05:54.471Z,992.39
2018-04-18T10:06:54.500Z,992.46
2018-04-18T10:07:54.505Z,992.46
2018-04-18T10:08:54.584Z,992.47
2018-04-18T10:09:54.564Z,992.45
2018-04-18T10:10:54.575Z,992.47
2018-04-18T10:11:55.194Z,992.47
2018-04-18T10:12:54.616Z,992.46
2018-04-18T10:13:54.680Z,992.42
2018-04-18T10:14:54.658Z,992.37
2018-04-18T10:15:54.681Z,992.46
2018-04-18T10:16:54.705Z,992.42
2018-04-18T10:17:54.730Z,992.50
2018-04-18T10:19:05.686Z,992.41
2018-04-18T10:19:54.766Z,992.45
2018-04-18T10:20:54.798Z,992.45
2018-04-18T10:21:54.790Z,992.47
2018-04-18T10:22:55.637Z,992.46
2018-04-18T10:25:26.541Z,992.40
2018-04-18T10:26:26.563Z,992.42
2018-04-18T10:27:26.577Z,992.42
2018-04-18T10:28:34.651Z,992.43
2018-04-18T10:29:26.627Z,992.46
2018-04-18T10:30:26.639Z,992.44
2018-04-18T10:31:26.673Z,992.48
2018-04-18T10:32:26.689Z,992.49
2018-04-18T10:33:26.712Z,992.50
2018-04-18T10:34:26.776Z,992.44
2018-04-18T10:35:26.759Z,992.45
2018-04-18T10:36:26.771Z,992.43
2018-04-18T10:37:27.413Z,992.45
2018-04-18T10:38:26.815Z,992.46
2018-04-18T10:39:26.919Z,992.48
2018-04-18T10:40:26.860Z,992.47
2018-04-18T10:41:26.885Z,992.42
2018-04-18T10:42:26.918Z,992.39
2018-04-18T10:43:26.967Z,992.42
2018-04-18T10:44:34.649Z,992.39
2018-04-18T10:45:27.083Z,992.40
2018-04-18T10:46:26.994Z,992.39
2018-04-18T10:47:27.019Z,992.42
2018-04-18T10:48:27.037Z,992.50
2018-04-18T10:49:27.054Z,992.48
2018-04-18T10:50:27.141Z,992.48
2018-04-18T10:51:27.107Z,992.51
2018-04-18T10:52:27.127Z,992.48
2018-04-18T10:53:27.142Z,992.49
2018-04-18T10:54:27.163Z,992.54
2018-04-18T10:55:38.145Z,992.52
2018-04-18T10:56:27.204Z,992.51
2018-04-18T10:57:27.238Z,992.51
2018-04-18T10:58:27.253Z,992.51
2018-04-18T10:59:27.276Z,992.54
2018-04-18T11:00:27.447Z,992.48
2018-04-18T11:01:27.316Z,992.49
2018-04-18T11:02:27.342Z,992.47
2018-04-18T11:03:27.365Z,992.39
2018-04-18T11:04:27.387Z,992.46
2018-04-18T11:05:27.585Z,992.40
2018-04-18T11:06:29.310Z,992.40
2018-04-18T11:07:27.450Z,992.41
2018-04-18T11:08:27.478Z,992.36
2018-04-18T11:09:27.495Z,992.41
2018-04-18T11:10:27.523Z,992.42
2018-04-18T11:11:27.688Z,992.41
2018-04-18T11:12:27.583Z,992.33
2018-04-18T11:13:27.587Z,992.32
2018-04-18T11:14:28.634Z,992.31
2018-04-18T11:15:27.960Z,992.29
2018-04-18T11:16:33.239Z,992.30
2018-04-18T11:17:27.676Z,992.30
2018-04-18T11:18:27.762Z,992.37
2018-04-18T11:19:27.717Z,992.31
2018-04-18T11:20:27.817Z,992.29
2018-04-18T11:21:27.792Z,992.36
2018-04-18T11:22:42.315Z,992.35
2018-04-18T11:23:27.845Z,992.29
2018-04-18T11:24:27.846Z,992.30
2018-04-18T11:25:27.926Z,992.36
2018-04-18T11:26:27.971Z,992.35
2018-04-18T11:27:28.960Z,992.36
2018-04-18T11:28:27.919Z,992.34
2018-04-18T11:29:27.934Z,992.28
2018-04-18T11:30:27.951Z,992.29
2018-04-18T11:31:27.966Z,992.31
2018-04-18T11:33:03.164Z,992.27
2018-04-18T11:33:28.011Z,992.28
2018-04-18T11:34:28.027Z,992.27
2018-04-18T11:35:28.052Z,992.27
2018-04-18T11:36:31.171Z,992.29
2018-04-18T11:37:28.093Z,992.29
2018-04-18T11:38:28.125Z,992.28
2018-04-18T11:39:28.832Z,992.32
2018-04-18T11:40:28.152Z,992.24
2018-04-18T11:42:07.675Z,992.25
2018-04-18T11:42:28.196Z,992.21
2018-04-18T11:43:28.816Z,992.22
2018-04-18T11:44:28.713Z,992.19
2018-04-18T11:45:28.379Z,992.20
2018-04-18T11:46:28.275Z,992.16
2018-04-18T11:49:02.083Z,992.21
2018-04-18T11:50:00.526Z,992.24
2018-04-18T11:51:00.546Z,992.24
2018-04-18T11:52:00.635Z,992.27
2018-04-18T11:53:00.591Z,992.21
2018-04-18T11:54:00.612Z,992.27
2018-04-18T11:55:00.638Z,992.22
2018-04-18T11:56:00.695Z,992.23
2018-04-18T11:57:00.855Z,992.21
2018-04-18T11:58:00.691Z,992.23
2018-04-18T11:59:00.730Z,992.24
2018-04-18T12:00:00.735Z,992.24
2018-04-18T12:01:00.773Z,992.21
2018-04-18T12:02:00.798Z,992.18
2018-04-18T12:03:04.124Z,992.22
2018-04-18T12:04:00.825Z,992.19
2018-04-18T12:05:00.845Z,992.17
2018-04-18T12:06:00.867Z,992.17
2018-04-18T12:07:00.897Z,992.18
2018-04-18T12:08:36.148Z,992.18
2018-04-18T12:09:00.941Z,992.21
2018-04-18T12:10:00.985Z,992.20
2018-04-18T12:11:01.020Z,992.24
2018-04-18T12:12:01.020Z,992.18
2018-04-18T12:13:01.174Z,992.24
2018-04-18T12:14:01.068Z,992.20
2018-04-18T12:15:02.046Z,992.21
2018-04-18T12:16:01.263Z,992.23
2018-04-18T12:17:01.191Z,992.22
2018-04-18T12:19:32.936Z,992.22
2018-04-18T12:20:32.812Z,992.22
2018-04-18T12:21:32.873Z,992.24
2018-04-18T12:22:32.909Z,992.24
2018-04-18T12:23:32.937Z,992.23
2018-04-18T12:24:32.895Z,992.26
2018-04-18T12:25:32.947Z,992.25
2018-04-18T12:26:32.913Z,992.25
2018-04-18T12:27:32.939Z,992.24
2018-04-18T12:28:33.006Z,992.24
2018-04-18T12:29:32.992Z,992.23
2018-04-18T12:30:33.073Z,992.22
2018-04-18T12:31:33.024Z,992.16
2018-04-18T12:32:33.080Z,992.18
2018-04-18T12:33:33.234Z,992.20